Aérodrome :
LOGIN :

S'inscrire | Disclaimer

   EN    FR    IT 

 










Légende :    VFR   VFR Marginal   IFR   IFR Intensif   IFR Très Intensif
Visi : 
Plafond : 
>= 8 km
>= 3000ft
5 à 8 km
1000 à 3000 ft
1500m à 5 km
500 à 1000 ft
800 à 1500m
200 à 500 ft
< 800m
< 200 ft
Symboles :   Orages  Brouillard  Fortes neiges  Fortes précipitations  Vent > 20 kt
SIGMETs :   Divers  Orages  Givrage  Turbulence  Onde Orograph.  Cendres Volcan.






- Altitude de l'aérodrome : 461 ft
- Code IATA : WIE


ETOU - Wiesbaden Army

DERNIER METAR :
  • 131056Z AUTO 11007KT 9999 CLR 25/06 A3019 RMK AO2 SLP221 T02470055 $

METARs EXPIRÉS :
  • 130956Z AUTO 10004KT 9999 CLR 23/06 A3021 RMK AO2 SLP228 T02340058 $
  • 130856Z AUTO 03004KT 9999 CLR 22/07 A3022 RMK AO2 SLP232 T02230073 58006 $

TAF TAF ETOU
Valide du 13 à 04h jusqu'au 14 à 10h UTC


130400Z 1304/1410 05008KT 9999 FEW050 QNH3017INS
BECMG 1313/1314 VRB06KT 9999 FEW050 QNH3003INS TX26/1315Z TN15/1304Z



MET'MAP, la Météo Aéronautique d'un coup d'oeil ! - Copyright ORBIFLY Décembre 2007 - Disclaimer

ORBIFLY MET'MAP TEAM :

Programmation & Développement : Alexandra Zaïnal
Sur une idée originale de : Baudouin d'Aumeries
Assistance à la programmation : Marc-Olivier Méhu
Soutien technique & logistique : Manuel Goepfert

Contact : metmap@orbifly.com




SOURCES & CREDITS :

   NOAA